Latest Weather Observations for Toowoomba

IDQ60901

Issued at 6:21 am EST Saturday 4 July 2015 (issued every 10 minutes, with the page automatically refreshed every 10 minutes)

About weather observations | Map of Brisbane area stations | Latest observations for Brisbane area | Other Formats
Station Details ID: 041529 Name: TOOWOOMBA AIRPORT Lat: -27.54 Lon: 151.91 Height: 640.9 m
Data from the previous 72 hours. | See also: Recent months at Toowoomba
Date/Time
EST
Tmp

°C
App
Tmp
°C
Dew
Point
°C
Rel
Hum
%
Delta-T

°C
Wind Press
QNH
hPa
Press
MSL
hPa
Rain
since
9 am
mm
Dir
 
Spd
km/h
Gust
km/h
Spd
kts
Gust
kts
04/06:00am 5.9 2.8 3.6 85 1.0 ENE 9 9 5 5 1024.4 1024.0 0.0
04/05:30am 6.0 4.4 2.5 78 1.5 CALM 0 0 0 0 1024.4 1024.0 0.0
04/05:00am 7.6 6.2 3.8 77 1.7 CALM 0 0 0 0 1024.3 1023.9 0.0
04/04:30am 7.4 6.0 3.8 78 1.6 CALM 0 0 0 0 1024.2 1023.8 0.0
04/04:00am 7.4 6.0 3.8 78 1.6 CALM 0 0 0 0 1024.2 1023.8 0.0
04/03:30am 7.1 5.0 3.9 80 1.4 SE 4 6 2 3 1024.1 1023.7 0.0
04/03:00am 6.7 4.1 4.0 83 1.2 SE 7 9 4 5 1024.0 1023.6 0.0
04/02:30am 6.8 4.2 4.3 84 1.1 SE 7 9 4 5 1024.4 1024.0 0.0
04/02:00am 6.5 4.1 4.5 87 0.9 ESE 6 6 3 3 1024.5 1024.1 0.0
04/01:30am 5.6 2.9 3.6 87 0.9 E 7 7 4 4 1024.6 1024.2 0.0
04/01:00am 6.0 4.2 3.5 84 1.1 E 2 9 1 5 1024.6 1024.2 0.0
04/12:30am 5.5 4.0 3.0 84 1.1 CALM 0 0 0 0 1024.6 1024.2 0.0
04/12:00am 6.4 5.1 3.9 84 1.1 CALM 0 0 0 0 1024.9 1024.6 0.0
 
Date/Time
EST
Tmp

°C
App
Tmp
°C
Dew
Point
°C
Rel
Hum
%
Delta-T

°C
Wind Press
QNH
hPa
Press
MSL
hPa
Rain
since
9 am
mm
Dir
 
Spd
km/h
Gust
km/h
Spd
kts
Gust
kts
03/11:30pm 6.2 4.9 3.9 85 1.0 CALM 0 0 0 0 1025.0 1024.7 0.0
03/11:00pm 6.7 4.2 3.7 81 1.3 ENE 6 7 3 4 1025.0 1024.7 0.0
03/10:30pm 6.1 3.0 3.8 85 1.0 E 9 9 5 5 1025.1 1024.8 0.0
03/10:00pm 6.4 3.6 3.4 81 1.3 E 7 9 4 5 1025.4 1025.0 0.0
03/09:30pm 7.9 5.6 4.7 80 1.5 E 6 6 3 3 1025.5 1025.1 0.0
03/09:00pm 7.5 5.1 4.1 79 1.5 ENE 6 7 3 4 1025.6 1025.2 0.0
03/08:30pm 8.5 5.9 4.3 75 1.9 ENE 7 9 4 5 1025.4 1025.0 0.0
03/08:00pm 8.7 6.1 4.1 73 2.1 E 7 9 4 5 1025.1 1024.8 0.0
03/07:30pm 9.5 6.5 4.3 70 2.4 E 9 9 5 5 1024.9 1024.6 0.0
03/07:00pm 9.2 5.8 4.0 70 2.4 E 11 15 6 8 1024.6 1024.2 0.0
03/06:30pm 9.6 6.6 4.0 68 2.6 E 9 13 5 7 1024.3 1023.9 0.0
03/06:00pm 10.5 6.8 4.2 65 2.9 E 13 15 7 8 1024.0 1023.6 0.0
03/05:30pm 10.9 7.2 4.4 64 3.0 E 13 17 7 9 1023.3 1022.9 0.0
03/05:00pm 12.4 8.3 4.4 58 3.8 E 15 22 8 12 1023.1 1022.7 0.0
03/04:30pm 13.5 8.9 3.6 51 4.6 E 17 22 9 12 1023.1 1022.7 0.0
03/04:00pm 14.3 10.0 3.5 48 5.0 E 15 20 8 11 1023.0 1022.6 0.0
03/03:30pm 14.9 10.5 2.8 44 5.6 E 15 20 8 11 1022.9 1022.5 0.0
03/03:00pm 14.8 9.9 1.7 41 5.9 ESE 17 20 9 11 1022.8 1022.4 0.0
03/02:30pm 14.7 10.5 1.9 42 5.8 SE 13 20 7 11 1022.8 1022.4 0.0
03/02:00pm 14.8 10.3 2.0 42 5.8 SE 15 24 8 13 1022.7 1022.3 0.0
03/01:30pm 14.3 9.7 1.6 42 5.7 ESE 15 24 8 13 1022.8 1022.4 0.0
03/01:00pm 14.0 8.7 1.6 43 5.6 E 19 24 10 13 1023.0 1022.6 0.0
03/12:30pm 13.6 8.1 0.6 41 5.7 E 19 26 10 14 1023.4 1023.0 0.0
03/12:00pm 13.7 8.7 1.4 43 5.5 E 17 24 9 13 1023.8 1023.4 0.0
03/11:30am 13.0 7.7 -0.3 40 5.7 ESE 17 26 9 14 1024.1 1023.7 0.0
03/11:00am 12.3 7.3 -1.2 39 5.6 SE 15 20 8 11 1024.3 1023.9 0.0
03/10:30am 11.7 6.7 -1.4 40 5.4 E 15 20 8 11 1024.5 1024.1 0.0
03/10:00am 11.1 6.8 -1.6 41 5.1 E 11 20 6 11 1024.6 1024.2 0.0
03/09:30am 9.7 4.9 0.3 52 3.9 ESE 15 19 8 10 1024.6 1024.2 0.0
03/09:00am 7.9 3.7 1.5 64 2.7 SE 13 19 7 10 1024.3 1023.9 0.2
03/08:30am 6.3 2.9 2.0 74 1.8 SSE 9 19 5 10 1024.1 1023.7 0.2
03/08:00am 4.2 0.4 1.6 83 1.1 SSE 11 19 6 10 1023.8 1023.4 0.2
03/07:30am 2.8 -0.9 2.5 98 0.1 S 11 15 6 8 1023.4 1023.0 0.2
03/07:21am 2.1 -1.3 2.0 99 0.0 S 9 13 5 7 1023.4 1023.0 0.0
03/07:00am 0.9 -2.7 0.8 99 0.0 SW 9 9 5 5 1023.2 1022.8 0.0
03/06:30am 0.9 -2.3 0.8 99 0.0 SW 7 9 4 5 1023.2 1022.8 0.0
03/06:00am 1.2 -1.8 1.1 99 0.0 W 6 9 3 5 1022.9 1022.5 0.0
03/05:30am 1.0 -2.2 0.9 99 0.0 SW 7 9 4 5 1022.6 1022.2 0.0
03/05:00am 1.5 -1.6 1.4 99 0.0 SW 7 11 4 6 1022.5 1022.1 0.0
03/04:54am 1.6 -1.9 1.5 99 0.0 SW 9 15 5 8 1022.4 1022.0 0.0
03/04:52am 1.8 -2.0 1.7 99 0.0 SW 11 17 6 9 1022.3 1021.9 0.0
03/04:30am 2.0 -2.5 1.9 99 0.0 SW 15 19 8 10 1022.2 1021.8 0.0
03/04:27am 2.0 -2.5 1.9 99 0.0 SW 15 19 8 10 1022.3 1021.9 0.0
03/04:03am 2.3 -2.6 2.2 99 0.0 SW 17 20 9 11 1022.2 1021.8 0.0
03/04:00am 2.2 -2.7 2.1 99 0.0 SW 17 20 9 11 1022.2 1021.8 0.0
03/03:30am 2.2 -1.9 2.1 99 0.0 SW 13 22 7 12 1022.2 1021.8 0.0
03/03:21am 1.8 -2.0 1.7 99 0.0 SW 11 15 6 8 1022.4 1022.0 0.0
03/03:00am 2.1 -2.0 2.0 99 0.0 WSW 13 17 7 9 1022.3 1021.9 0.0
03/02:30am 2.6 -1.5 2.5 99 0.0 WSW 13 19 7 10 1022.7 1022.3 0.0
03/02:00am 3.1 -0.9 3.0 99 0.0 WNW 13 17 7 9 1023.1 1022.7 0.0
03/01:38am 2.6 -2.6 2.5 99 0.0 WSW 19 26 10 14 1022.9 1022.5 0.0
03/01:30am 2.6 -3.6 2.3 98 0.1 WSW 24 30 13 16 1022.5 1022.1 0.0
03/01:19am 2.7 -3.8 2.4 98 0.1 WSW 26 32 14 17 1022.3 1021.9 0.0
03/01:00am 3.0 -2.7 2.7 98 0.1 WSW 22 30 12 16 1022.4 1022.0 0.0
03/12:30am 3.3 -2.8 2.9 97 0.2 WSW 24 30 13 16 1022.6 1022.2 0.0
03/12:00am 3.4 -1.7 2.8 96 0.3 WSW 19 26 10 14 1023.2 1022.8 0.0
 
Date/Time
EST
Tmp

°C
App
Tmp
°C
Dew
Point
°C
Rel
Hum
%
Delta-T

°C
Wind Press
QNH
hPa
Press
MSL
hPa
Rain
since
9 am
mm
Dir
 
Spd
km/h
Gust
km/h
Spd
kts
Gust
kts
02/11:30pm 3.7 -0.7 2.8 94 0.4 W 15 20 8 11 1023.4 1023.0 0.0
02/11:04pm 4.1 -1.6 2.9 92 0.5 SW 22 28 12 15 1023.6 1023.2 0.0
02/11:00pm 4.3 -1.4 3.1 92 0.5 SW 22 32 12 17 1023.6 1023.2 0.0
02/10:30pm 5.0 -0.6 3.5 90 0.6 SW 22 28 12 15 1023.9 1023.5 0.0
02/10:00pm 5.1 -0.1 3.6 90 0.6 WSW 20 30 11 16 1023.7 1023.3 0.0
02/09:53pm 5.1 -0.5 3.4 89 0.7 WSW 22 32 12 17 1023.6 1023.2 0.0
02/09:30pm 5.4 -0.6 3.4 87 0.9 WSW 24 32 13 17 1023.3 1022.9 0.0
02/09:10pm 5.7 0.7 3.5 86 1.0 WSW 19 26 10 14 1023.3 1022.9 0.0
02/09:00pm 5.5 0.4 3.3 86 0.9 W 19 24 10 13 1023.2 1022.8 0.0
02/08:30pm 5.7 0.9 2.7 81 1.3 W 17 20 9 11 1023.1 1022.7 0.0
02/08:00pm 5.8 1.3 2.3 78 1.5 WSW 15 20 8 11 1023.6 1023.2 0.0
02/07:30pm 6.2 1.3 2.1 75 1.7 WSW 17 22 9 12 1023.2 1022.8 0.0
02/07:00pm 6.6 2.1 2.1 73 1.9 W 15 19 8 10 1022.9 1022.5 0.0
02/06:30pm 7.1 2.6 2.2 71 2.1 W 15 20 8 11 1022.5 1022.1 0.0
02/06:00pm 7.4 2.5 2.1 69 2.3 WSW 17 22 9 12 1022.3 1021.9 0.0
02/05:30pm 8.3 2.9 2.3 66 2.6 WSW 20 28 11 15 1022.0 1021.5 0.0
02/05:00pm 9.0 2.8 1.9 61 3.1 WSW 24 33 13 18 1021.9 1021.4 0.0
02/04:30pm 10.3 3.7 2.2 57 3.6 WSW 26 35 14 19 1021.7 1021.3 0.0
02/04:00pm 10.7 3.7 2.0 55 3.8 WSW 28 35 15 19 1021.7 1021.3 0.0
02/03:30pm 12.0 5.2 3.0 54 4.1 WSW 28 37 15 20 1021.6 1021.2 0.0
02/03:00pm 12.3 5.3 2.2 50 4.5 WSW 28 39 15 21 1021.6 1021.2 0.0
02/02:30pm 12.9 6.5 3.0 51 4.5 WSW 26 37 14 20 1021.5 1021.1 0.0
02/02:00pm 13.1 5.7 2.1 47 4.9 WSW 30 39 16 21 1021.6 1021.2 0.0
02/01:30pm 11.3 3.8 1.5 51 4.3 W 30 43 16 23 1021.9 1021.4 0.0
02/01:00pm 11.4 5.1 1.6 51 4.3 W 24 32 13 17 1022.0 1021.5 0.0
02/12:30pm 11.6 4.5 1.5 50 4.4 W 28 35 15 19 1022.5 1022.1 0.0
02/12:00pm 11.6 4.1 1.3 49 4.5 W 30 39 16 21 1023.0 1022.6 0.0
02/11:30am 11.2 4.2 2.2 54 4.0 W 28 35 15 19 1023.3 1022.9 0.0
02/11:00am 11.3 5.0 3.8 60 3.4 WSW 26 35 14 19 1024.0 1023.6 0.0
02/10:30am 10.5 4.5 5.3 70 2.5 WSW 26 33 14 18 1024.4 1024.0 0.0
02/10:00am 9.7 4.2 5.7 76 1.9 SW 24 32 13 17 1024.9 1024.6 0.0
02/09:30am 9.1 3.2 5.8 80 1.6 SW 26 35 14 19 1024.9 1024.6 0.0
02/09:00am 8.2 2.0 6.2 87 0.9 WSW 28 39 15 21 1025.4 1025.0 0.0
02/08:45am 8.1 3.1 6.4 89 0.8 WSW 22 30 12 16 1025.4 1025.0 0.0
02/08:30am 7.4 2.9 6.3 93 0.5 WSW 19 24 10 13 1024.9 1024.6 0.0
02/08:10am 7.4 3.0 6.5 94 0.4 SW 19 26 10 14 1024.4 1024.0 0.0
02/08:00am 7.2 2.8 6.6 96 0.3 SW 19 24 10 13 1024.2 1023.8 0.0
02/07:56am 7.2 2.9 6.8 97 0.2 SW 19 24 10 13 1024.2 1023.8 0.0
02/07:47am 6.9 2.5 6.5 97 0.2 SW 19 24 10 13 1024.4 1024.0 0.0
02/07:30am 7.0 3.0 6.6 97 0.2 SW 17 22 9 12 1024.5 1024.1 0.0
02/07:00am 6.9 2.9 6.5 97 0.2 SSW 17 24 9 13 1023.9 1023.5 0.0
02/06:38am 7.3 2.4 7.0 98 0.1 SSW 22 26 12 14 1023.8 1023.4 0.0
02/06:30am 7.4 2.6 7.3 99 0.0 SSW 22 30 12 16 1023.7 1023.3 0.0
02/06:14am 7.7 2.5 7.4 98 0.1 SW 24 32 13 17 1023.4 1023.0 0.0
02/06:00am 7.9 3.1 7.5 97 0.2 SW 22 28 12 15 1023.3 1022.9 0.0
02/05:30am 8.0 3.2 7.2 95 0.4 SW 22 33 12 18 1023.2 1022.8 0.0
02/05:16am 8.1 3.3 7.5 96 0.3 SW 22 30 12 16 1023.2 1022.8 0.0
02/05:00am 7.6 4.1 7.2 97 0.2 WSW 15 20 8 11 1023.1 1022.7 0.0
02/04:59am 7.5 3.9 6.9 96 0.3 WSW 15 19 8 10 1023.1 1022.7 0.0
02/04:30am 8.1 4.2 7.3 95 0.4 WSW 17 20 9 11 1023.6 1023.2 0.0
02/04:00am 8.6 4.2 7.5 93 0.5 WSW 20 26 11 14 1023.8 1023.4 0.0
02/03:30am 8.6 4.5 7.7 94 0.4 WSW 19 24 10 13 1023.9 1023.5 0.0
02/03:00am 8.4 4.6 7.6 95 0.4 WSW 17 22 9 12 1023.9 1023.5 0.0
02/02:30am 8.4 4.7 7.8 96 0.3 WSW 17 24 9 13 1023.9 1023.5 0.0
02/02:00am 8.4 4.7 8.1 98 0.1 WSW 17 26 9 14 1024.1 1023.7 0.0
02/01:30am 8.6 5.0 8.3 98 0.1 WSW 17 20 9 11 1024.4 1024.0 0.0
02/01:18am 8.8 5.2 8.4 97 0.2 WSW 17 26 9 14 1024.4 1024.0 0.0
02/01:00am 8.7 4.5 8.1 96 0.3 SW 20 24 11 13 1024.4 1024.0 0.0
02/12:54am 8.6 4.3 8.0 96 0.3 SW 20 28 11 15 1024.4 1024.0 0.0
02/12:30am 9.1 4.7 9.0 99 0.1 SW 22 32 12 17 1024.5 1024.1 0.0
02/12:22am 8.9 4.8 8.8 99 0.1 SW 20 28 11 15 1024.6 1024.2 0.0
02/12:01am 8.6 4.7 8.5 99 0.1 SW 19 26 10 14 1024.8 1024.5 0.0
02/12:00am 8.6 4.7 8.5 99 0.0 SW 19 26 10 14 1024.8 1024.5 0.0
 
Date/Time
EST
Tmp

°C
App
Tmp
°C
Dew
Point
°C
Rel
Hum
%
Delta-T

°C
Wind Press
QNH
hPa
Press
MSL
hPa
Rain
since
9 am
mm
Dir
 
Spd
km/h
Gust
km/h
Spd
kts
Gust
kts
01/11:40pm 8.6 4.0 8.3 98 0.1 SW 22 28 12 15 1024.7 1024.3 0.0
01/11:36pm 8.7 4.5 8.4 98 0.2 SW 20 26 11 14 1024.7 1024.3 0.0
01/11:30pm 8.8 4.8 8.4 97 0.2 SW 19 24 10 13 1024.8 1024.5 0.0
01/11:00pm 9.5 5.2 9.2 98 0.2 SW 22 30 12 16 1025.0 1024.7 0.0
01/10:30pm 10.0 6.7 9.4 96 0.3 SW 17 20 9 11 1025.4 1025.0 0.0
01/10:00pm 10.3 6.6 9.4 94 0.5 SW 19 28 10 15 1025.7 1025.3 0.0
01/09:30pm 10.6 7.6 9.4 92 0.6 SW 15 22 8 12 1025.7 1025.3 0.0
01/09:00pm 10.0 7.6 8.6 91 0.7 WSW 11 13 6 7 1026.0 1025.6 0.0
01/08:30pm 10.3 8.8 9.2 93 0.6 W 7 9 4 5 1026.1 1025.7 0.0
01/08:25pm 10.1 8.6 9.2 94 0.5 W 7 9 4 5 1026.0 1025.6 0.0
01/08:00pm 9.6 7.9 8.4 92 0.6 W 7 9 4 5 1025.7 1025.3 0.0
01/07:30pm 9.8 7.7 8.2 90 0.8 W 9 13 5 7 1025.7 1025.3 0.0
01/07:00pm 9.9 7.8 8.2 89 0.8 WSW 9 13 5 7 1025.5 1025.1 0.0
01/06:30pm 10.3 8.2 8.2 87 1.1 WSW 9 15 5 8 1025.3 1024.9 0.0
01/06:00pm 11.0 8.6 8.6 85 1.2 W 11 15 6 8 1025.0 1024.7 0.0
01/05:30pm 11.2 8.7 8.2 82 1.5 W 11 17 6 9 1024.6 1024.2 0.0
01/05:00pm 12.2 9.3 8.3 77 2.0 WSW 13 20 7 11 1024.4 1024.0 0.0
01/04:30pm 13.3 9.5 9.0 75 2.2 WSW 19 28 10 15 1024.3 1023.9 0.0
01/04:00pm 14.0 9.6 9.0 72 2.6 WSW 22 32 12 17 1024.4 1024.0 0.0
01/03:30pm 15.9 11.9 8.9 63 3.7 SW 20 28 11 15 1024.1 1023.7 0.0
01/03:00pm 16.3 11.1 8.8 61 4.0 WSW 26 32 14 17 1024.0 1023.6 0.0
01/02:30pm 17.2 12.6 9.6 61 4.1 WSW 24 32 13 17 1024.0 1023.6 0.0
01/02:00pm 18.0 13.9 8.8 55 4.9 WSW 20 30 11 16 1024.1 1023.7 0.0
01/01:30pm 18.3 13.1 7.4 49 5.7 WSW 24 32 13 17 1024.2 1023.8 0.0
01/01:00pm 17.6 13.0 8.2 54 4.9 W 22 32 12 17 1024.5 1024.1 0.0
01/12:30pm 18.4 14.6 9.7 57 4.7 WSW 20 30 11 16 1024.8 1024.5 0.0
01/12:00pm 17.0 13.5 8.7 58 4.4 W 17 24 9 13 1025.6 1025.2 0.0
01/11:30am 16.5 12.7 9.0 61 4.0 WSW 19 24 10 13 1026.0 1025.6 0.0
01/11:00am 15.6 12.3 9.5 67 3.2 SW 17 24 9 13 1026.6 1026.3 0.0
01/10:30am 15.4 12.0 10.6 73 2.6 SW 19 24 10 13 1027.0 1026.6 0.0
01/10:00am 13.9 11.5 10.1 78 2.0 SW 13 19 7 10 1027.2 1026.8 0.0
01/09:30am 12.7 9.6 10.4 86 1.2 SW 17 22 9 12 1027.4 1026.8 0.0
01/09:00am 12.5 9.1 10.4 87 1.1 SW 19 22 10 12 1027.2 1026.6 0.0
01/08:30am 12.1 9.7 10.0 87 1.1 SW 13 19 7 10 1026.7 1026.2 0.0
01/08:00am 11.5 10.5 10.4 93 0.6 SW 6 7 3 4 1026.4 1025.8 0.0
01/07:30am 10.7 8.6 9.8 94 0.5 WSW 11 15 6 8 1026.3 1025.7 0.0
01/07:00am 11.3 10.0 10.0 92 0.7 SSE 7 17 4 9 1025.9 1025.3 0.0
01/06:30am 11.4 9.7 10.0 91 0.7 E 9 9 5 5 1025.4 1024.8 0.0

Latest Capital City Observations: Canberra | Sydney | Melbourne | Brisbane | Adelaide | Perth | Hobart | Darwin

Other Formats:

Comma delimited format used in spreadsheet applications
http://www.bom.gov.au/fwo/IDQ60901/IDQ60901.95551.axf

JavaScript Object Notation format (JSON) in row-major order
http://www.bom.gov.au/fwo/IDQ60901/IDQ60901.95551.json